createdAt,value
2023-05-06T00:00:53.694Z,101630.84
2023-05-06T00:03:24.269Z,101631.81
2023-05-06T00:05:53.568Z,101631.03
2023-05-06T00:08:22.979Z,101619.69
2023-05-06T00:10:52.111Z,101627.66
2023-05-06T00:13:21.284Z,101623.41
2023-05-06T00:15:50.399Z,101618.91
2023-05-06T00:18:22.297Z,101618.84
2023-05-06T00:20:52.761Z,101614.72
2023-05-06T00:23:21.888Z,101618.53
2023-05-06T00:25:51.009Z,101622.16
2023-05-06T00:28:20.126Z,101616.75
2023-05-06T00:30:49.713Z,101610.44
2023-05-06T00:33:18.830Z,101613.56
2023-05-06T00:35:48.145Z,101616.03
2023-05-06T00:38:19.576Z,101617.16
2023-05-06T00:40:48.763Z,101615.25
2023-05-06T00:43:17.911Z,101614.25
2023-05-06T00:45:47.165Z,101614.06
2023-05-06T00:48:17.300Z,101614.34
2023-05-06T00:50:46.598Z,101619.19
2023-05-06T00:53:20.313Z,101610.75
2023-05-06T00:55:51.167Z,101613.09
2023-05-06T00:58:21.187Z,101610.81
2023-05-06T01:00:52.108Z,101610.47
2023-05-06T01:03:21.423Z,101604.56
2023-05-06T01:05:59.691Z,101616.03
2023-05-06T01:08:36.062Z,101608.97
2023-05-06T01:11:15.704Z,101608.41
2023-05-06T01:13:51.218Z,101614.09
2023-05-06T01:16:24.487Z,101605.81
2023-05-06T01:18:55.565Z,101604.88
2023-05-06T01:21:34.496Z,101604.69
2023-05-06T01:24:05.188Z,101607.63
2023-05-06T01:26:34.583Z,101605.28
2023-05-06T01:29:04.092Z,101616.06
2023-05-06T01:31:49.324Z,101611.03
2023-05-06T01:34:24.478Z,101611.81
2023-05-06T01:37:07.906Z,101604.63
2023-05-06T01:39:40.328Z,101602.00
2023-05-06T01:42:14.638Z,101610.88
2023-05-06T01:44:44.891Z,101602.59
2023-05-06T01:47:15.304Z,101615.63
2023-05-06T01:49:44.709Z,101619.19
2023-05-06T01:52:13.924Z,101623.84
2023-05-06T01:54:44.342Z,101624.56
2023-05-06T01:57:13.409Z,101627.47
2023-05-06T01:59:42.563Z,101624.78
2023-05-06T02:02:11.664Z,101623.84
2023-05-06T02:04:40.786Z,101626.16
2023-05-06T02:07:10.057Z,101629.16
2023-05-06T02:09:39.593Z,101631.56
2023-05-06T02:12:10.134Z,101633.16
2023-05-06T02:14:39.256Z,101625.38
2023-05-06T02:17:08.819Z,101618.97
2023-05-06T02:19:37.878Z,101637.63
2023-05-06T02:22:07.010Z,101634.25
2023-05-06T02:24:36.071Z,101633.53
2023-05-06T02:27:05.340Z,101631.00
2023-05-06T02:29:35.858Z,101623.47
2023-05-06T02:32:06.253Z,101627.53
2023-05-06T02:34:35.330Z,101629.34
2023-05-06T02:37:04.469Z,101636.13
2023-05-06T02:39:33.531Z,101640.97
2023-05-06T02:42:03.718Z,101638.22
2023-05-06T02:44:32.798Z,101628.84
2023-05-06T02:47:03.225Z,101634.91
2023-05-06T02:49:32.344Z,101632.94
2023-05-06T02:52:01.505Z,101625.22
2023-05-06T02:54:30.600Z,101625.19
2023-05-06T02:56:59.653Z,101623.09
2023-05-06T02:59:28.816Z,101622.50
2023-05-06T03:01:57.833Z,101626.78
2023-05-06T03:04:28.382Z,101625.84
2023-05-06T03:06:57.513Z,101628.63
2023-05-06T03:09:26.597Z,101620.53
2023-05-06T03:11:57.119Z,101619.41
2023-05-06T03:14:26.684Z,101625.00
2023-05-06T03:16:56.576Z,101623.88
2023-05-06T03:19:27.397Z,101623.41
2023-05-06T03:21:56.476Z,101619.63
2023-05-06T03:24:26.083Z,101620.53
2023-05-06T03:26:55.477Z,101617.63
2023-05-06T03:29:24.668Z,101617.47
2023-05-06T03:31:56.728Z,101618.13
2023-05-06T03:34:28.826Z,101617.00
2023-05-06T03:36:58.536Z,101620.91
2023-05-06T03:39:29.480Z,101615.19
2023-05-06T03:41:59.300Z,101621.63
2023-05-06T03:44:28.741Z,101616.69
2023-05-06T03:46:58.078Z,101609.25
2023-05-06T03:49:28.562Z,101604.09
2023-05-06T03:51:57.672Z,101603.84
2023-05-06T03:54:27.836Z,101602.78
2023-05-06T03:56:57.000Z,101603.06
2023-05-06T03:59:26.121Z,101598.63
2023-05-06T04:01:56.643Z,101594.69
2023-05-06T04:04:28.230Z,101596.94
2023-05-06T04:06:58.172Z,101604.28
2023-05-06T04:09:27.344Z,101597.56
2023-05-06T04:11:57.857Z,101604.09
2023-05-06T04:14:28.456Z,101604.19
2023-05-06T04:16:57.616Z,101607.91
2023-05-06T04:19:28.173Z,101615.31
2023-05-06T04:21:58.404Z,101612.97
2023-05-06T04:24:28.567Z,101603.53
2023-05-06T04:26:58.014Z,101613.81
2023-05-06T04:29:27.275Z,101615.19
2023-05-06T04:32:03.120Z,101618.25
2023-05-06T04:34:36.266Z,101621.38
2023-05-06T04:37:07.101Z,101620.59
2023-05-06T04:39:47.203Z,101622.75
2023-05-06T04:42:17.085Z,101635.00
2023-05-06T04:44:53.968Z,101631.88
2023-05-06T04:47:28.043Z,101639.44
2023-05-06T04:49:58.884Z,101645.19
2023-05-06T04:52:29.442Z,101640.22
2023-05-06T04:54:58.938Z,101644.53
2023-05-06T04:57:28.056Z,101647.41
2023-05-06T04:59:58.732Z,101647.81
2023-05-06T05:02:27.951Z,101645.63
2023-05-06T05:04:58.694Z,101652.13
2023-05-06T05:07:27.949Z,101646.28
2023-05-06T05:09:57.077Z,101649.56
2023-05-06T05:12:26.132Z,101651.91
2023-05-06T05:14:55.733Z,101651.69
2023-05-06T05:17:25.344Z,101654.53
2023-05-06T05:19:54.863Z,101657.88
2023-05-06T05:22:25.832Z,101661.91
2023-05-06T05:24:54.922Z,101663.94
2023-05-06T05:27:24.302Z,101666.94
2023-05-06T05:29:55.003Z,101661.03
2023-05-06T05:32:24.490Z,101665.09
2023-05-06T05:34:54.086Z,101664.47
2023-05-06T05:37:24.724Z,101662.88
2023-05-06T05:39:53.786Z,101667.66
2023-05-06T05:42:23.418Z,101673.44
2023-05-06T05:44:52.664Z,101673.44
2023-05-06T05:47:22.960Z,101667.38
2023-05-06T05:49:53.104Z,101682.75
2023-05-06T05:52:23.941Z,101677.78
2023-05-06T05:54:53.160Z,101682.53
2023-05-06T05:57:23.068Z,101686.31
2023-05-06T05:59:52.415Z,101685.97
2023-05-06T06:02:21.754Z,101685.78
2023-05-06T06:04:50.977Z,101692.19
2023-05-06T06:07:20.276Z,101689.91
2023-05-06T06:09:50.824Z,101691.91
2023-05-06T06:12:20.369Z,101705.09
2023-05-06T06:14:49.491Z,101693.44
2023-05-06T06:17:22.840Z,101694.53
2023-05-06T06:19:57.142Z,101701.63
2023-05-06T06:22:26.431Z,101701.53
2023-05-06T06:24:59.048Z,101698.88
2023-05-06T06:27:28.125Z,101701.50
2023-05-06T06:29:57.969Z,101703.75
2023-05-06T06:32:27.113Z,101703.16
2023-05-06T06:34:56.233Z,101708.50
2023-05-06T06:37:25.849Z,101708.44
2023-05-06T06:39:54.913Z,101701.97
2023-05-06T06:42:25.932Z,101697.94
2023-05-06T06:45:10.359Z,101707.59
2023-05-06T06:47:39.782Z,101708.44
2023-05-06T06:50:10.685Z,101706.78
2023-05-06T06:52:39.811Z,101716.13
2023-05-06T06:55:10.292Z,101721.66
2023-05-06T06:57:41.239Z,101726.56
2023-05-06T07:00:11.370Z,101726.13
2023-05-06T07:02:40.703Z,101727.66
2023-05-06T07:05:10.554Z,101736.00
2023-05-06T07:07:39.824Z,101732.16
2023-05-06T07:10:09.876Z,101736.72
2023-05-06T07:12:40.445Z,101739.44
2023-05-06T07:15:10.599Z,101734.03
2023-05-06T07:17:41.182Z,101742.28
2023-05-06T07:20:11.533Z,101739.97
2023-05-06T07:22:41.288Z,101739.13
2023-05-06T07:25:11.379Z,101744.03
2023-05-06T07:27:42.104Z,101740.56
2023-05-06T07:30:11.978Z,101747.25
2023-05-06T07:32:43.638Z,101755.66
2023-05-06T07:35:13.111Z,101757.00
2023-05-06T07:37:42.337Z,101754.88
2023-05-06T07:40:11.987Z,101750.78
2023-05-06T07:42:43.280Z,101757.09
2023-05-06T07:45:12.955Z,101749.16
2023-05-06T07:47:42.509Z,101760.78
2023-05-06T07:50:12.048Z,101766.63
2023-05-06T07:52:41.229Z,101758.72
2023-05-06T07:55:11.654Z,101766.09
2023-05-06T07:57:42.348Z,101756.91
2023-05-06T08:00:12.774Z,101768.59
2023-05-06T08:02:44.275Z,101768.78
2023-05-06T08:05:14.120Z,101764.28
2023-05-06T08:07:43.774Z,101776.91
2023-05-06T08:10:13.038Z,101777.66
2023-05-06T08:12:43.597Z,101772.50
2023-05-06T08:15:13.118Z,101784.22
2023-05-06T08:17:42.416Z,101777.91
2023-05-06T08:20:12.426Z,101780.56
2023-05-06T08:22:41.657Z,101784.13
2023-05-06T08:25:11.556Z,101788.19
2023-05-06T08:27:42.197Z,101791.09
2023-05-06T08:30:12.394Z,101789.06
2023-05-06T08:32:41.616Z,101786.16
2023-05-06T08:35:11.614Z,101782.66
2023-05-06T08:37:41.512Z,101786.50
2023-05-06T08:40:19.195Z,101791.34
2023-05-06T08:42:50.511Z,101793.88
2023-05-06T08:45:20.020Z,101796.56
2023-05-06T08:47:49.219Z,101796.63
2023-05-06T08:50:18.497Z,101802.63
2023-05-06T08:52:49.005Z,101806.94
2023-05-06T08:55:20.560Z,101807.66
2023-05-06T08:57:53.574Z,101810.13
2023-05-06T09:00:22.834Z,101807.53
2023-05-06T09:02:52.028Z,101817.00
2023-05-06T09:05:21.180Z,101814.22
2023-05-06T09:07:50.443Z,101806.25
2023-05-06T09:10:19.840Z,101800.03
2023-05-06T09:12:50.523Z,101798.06
2023-05-06T09:15:24.440Z,101809.72
2023-05-06T09:17:55.583Z,101803.69
2023-05-06T09:20:25.103Z,101800.00
2023-05-06T09:22:57.944Z,101798.34
2023-05-06T09:25:27.495Z,101800.69
2023-05-06T09:28:07.473Z,101808.34
2023-05-06T09:30:40.828Z,101806.84
2023-05-06T09:33:10.526Z,101815.06
2023-05-06T09:35:42.001Z,101812.53
2023-05-06T09:38:11.945Z,101809.75
2023-05-06T09:40:43.780Z,101815.38
2023-05-06T09:43:15.671Z,101811.88
2023-05-06T09:45:46.274Z,101816.72
2023-05-06T09:48:16.934Z,101816.00
2023-05-06T09:50:46.597Z,101830.94
2023-05-06T09:53:18.711Z,101820.28
2023-05-06T09:55:50.693Z,101812.81
2023-05-06T09:58:23.893Z,101823.38
2023-05-06T10:00:54.165Z,101819.09
2023-05-06T10:03:25.013Z,101821.41
2023-05-06T10:05:57.211Z,101817.75
2023-05-06T10:08:29.143Z,101816.00
2023-05-06T10:10:58.483Z,101809.56
2023-05-06T10:13:29.110Z,101815.63
2023-05-06T10:16:01.754Z,101817.97
2023-05-06T10:18:31.984Z,101820.31
2023-05-06T10:21:02.133Z,101820.03
2023-05-06T10:23:38.552Z,101819.00
2023-05-06T10:26:13.704Z,101821.97
2023-05-06T10:28:49.497Z,101829.00
2023-05-06T10:31:19.206Z,101821.41
2023-05-06T10:33:51.536Z,101820.84
2023-05-06T10:36:23.892Z,101817.66
2023-05-06T10:38:56.549Z,101816.44
2023-05-06T10:41:28.880Z,101824.19
2023-05-06T10:44:00.680Z,101823.97
2023-05-06T10:46:35.069Z,101821.84
2023-05-06T10:49:21.171Z,101819.25
2023-05-06T10:52:13.808Z,101822.91
2023-05-06T10:54:51.209Z,101822.69
2023-05-06T10:57:26.514Z,101835.97
2023-05-06T11:00:01.403Z,101823.19
2023-05-06T11:02:32.156Z,101829.13
2023-05-06T11:05:05.688Z,101824.19
2023-05-06T11:07:35.199Z,101824.28
2023-05-06T11:10:10.942Z,101827.81
2023-05-06T11:12:49.011Z,101826.03
2023-05-06T11:15:27.219Z,101838.41
2023-05-06T11:17:57.822Z,101835.66
2023-05-06T11:20:27.798Z,101834.84
2023-05-06T11:22:57.839Z,101827.00
2023-05-06T11:25:44.107Z,101838.84
2023-05-06T11:28:16.970Z,101839.03
2023-05-06T11:30:57.816Z,101835.31
2023-05-06T11:33:33.275Z,101828.38
2023-05-06T11:36:05.700Z,101832.88
2023-05-06T11:38:43.303Z,101828.16
2023-05-06T11:41:12.829Z,101825.50
2023-05-06T11:43:46.828Z,101828.84
2023-05-06T11:46:17.800Z,101841.75
2023-05-06T11:48:47.186Z,101839.50
2023-05-06T11:51:16.457Z,101843.44
2023-05-06T11:53:45.611Z,101838.91
2023-05-06T11:56:15.291Z,101840.63
2023-05-06T11:58:44.479Z,101847.56
2023-05-06T12:01:13.566Z,101846.66
2023-05-06T12:03:44.328Z,101847.63
2023-05-06T12:06:13.573Z,101849.56
2023-05-06T12:08:43.015Z,101853.72
2023-05-06T12:11:12.504Z,101865.28
2023-05-06T12:13:41.895Z,101856.97
2023-05-06T12:16:12.026Z,101865.66
2023-05-06T12:18:43.002Z,101876.31
2023-05-06T12:21:12.098Z,101867.44
2023-05-06T12:23:52.904Z,101875.00
2023-05-06T12:26:22.246Z,101874.66
2023-05-06T12:29:07.871Z,101879.28
2023-05-06T12:31:37.831Z,101886.00
2023-05-06T12:34:08.311Z,101888.59
2023-05-06T12:36:42.128Z,101881.19
2023-05-06T12:39:12.687Z,101878.84
2023-05-06T12:41:45.674Z,101875.97
2023-05-06T12:44:37.644Z,101874.00
2023-05-06T12:47:08.470Z,101873.72
2023-05-06T12:49:50.112Z,101868.84
2023-05-06T12:52:20.618Z,101872.19
2023-05-06T12:54:50.556Z,101873.41
2023-05-06T12:57:19.740Z,101876.00
2023-05-06T12:59:49.455Z,101877.59
2023-05-06T13:02:18.746Z,101879.47
2023-05-06T13:04:50.274Z,101875.94
2023-05-06T13:07:19.357Z,101875.66
2023-05-06T13:09:48.435Z,101884.06
2023-05-06T13:12:17.479Z,101884.31
2023-05-06T13:14:46.572Z,101887.06
2023-05-06T13:17:15.819Z,101887.47
2023-05-06T13:19:45.176Z,101895.31
2023-05-06T13:22:16.569Z,101893.50
2023-05-06T13:24:45.657Z,101897.44
2023-05-06T13:27:14.805Z,101895.00
2023-05-06T13:29:44.060Z,101889.75
2023-05-06T13:32:13.332Z,101900.06
2023-05-06T13:34:42.421Z,101893.34
2023-05-06T13:37:11.490Z,101901.31
2023-05-06T13:39:42.185Z,101902.78
2023-05-06T13:42:11.269Z,101909.16
2023-05-06T13:44:40.512Z,101907.47
2023-05-06T13:47:09.647Z,101908.19
2023-05-06T13:49:38.851Z,101906.25
2023-05-06T13:52:08.327Z,101905.22
2023-05-06T13:54:38.641Z,101898.66
2023-05-06T13:57:09.067Z,101898.84
2023-05-06T13:59:38.191Z,101897.25
2023-05-06T14:02:09.617Z,101906.91
2023-05-06T14:04:39.143Z,101906.34
2023-05-06T14:07:08.712Z,101904.19
2023-05-06T14:09:37.772Z,101911.97
2023-05-06T14:12:08.531Z,101910.94
2023-05-06T14:14:37.676Z,101914.09
2023-05-06T14:17:06.777Z,101903.28
2023-05-06T14:19:35.870Z,101905.22
2023-05-06T14:22:04.964Z,101897.66
2023-05-06T14:24:34.083Z,101892.88
2023-05-06T14:27:04.099Z,101888.88
2023-05-06T14:29:34.527Z,101886.38
2023-05-06T14:32:03.962Z,101889.41
2023-05-06T14:34:35.941Z,101885.50
2023-05-06T14:37:05.161Z,101873.13
2023-05-06T14:39:34.585Z,101876.84
2023-05-06T14:42:03.820Z,101874.13
2023-05-06T14:44:34.293Z,101875.66
2023-05-06T14:47:03.434Z,101873.28
2023-05-06T14:49:32.566Z,101866.66
2023-05-06T14:52:01.638Z,101870.13
2023-05-06T14:54:30.810Z,101875.28
2023-05-06T14:57:02.930Z,101879.28
2023-05-06T14:59:33.391Z,101873.03
2023-05-06T15:02:02.465Z,101874.97
2023-05-06T15:04:31.682Z,101875.53
2023-05-06T15:07:01.469Z,101878.63
2023-05-06T15:09:43.919Z,101868.94
2023-05-06T15:12:15.109Z,101883.72
2023-05-06T15:14:46.109Z,101881.75
2023-05-06T15:17:16.019Z,101889.16
2023-05-06T15:19:45.928Z,101892.69
2023-05-06T15:22:18.466Z,101889.38
2023-05-06T15:24:47.520Z,101896.88
2023-05-06T15:27:16.598Z,101894.34
2023-05-06T15:29:47.037Z,101888.94
2023-05-06T15:32:16.537Z,101900.94
2023-05-06T15:34:45.786Z,101903.38
2023-05-06T15:37:16.423Z,101899.25
2023-05-06T15:39:45.602Z,101900.75
2023-05-06T15:42:14.827Z,101898.22
2023-05-06T15:44:43.909Z,101897.09
2023-05-06T15:47:14.788Z,101899.91
2023-05-06T15:52:15.853Z,101906.31
2023-05-06T15:54:49.672Z,101917.38
2023-05-06T15:57:19.261Z,101909.63
2023-05-06T15:59:48.360Z,101912.88
2023-05-06T16:04:51.067Z,101915.88
2023-05-06T16:07:20.292Z,101913.81
2023-05-06T16:09:50.185Z,101918.47
2023-05-06T16:12:19.352Z,101914.38
2023-05-06T16:14:48.387Z,101920.94
2023-05-06T16:17:18.857Z,101922.97
2023-05-06T16:19:47.917Z,101916.97
2023-05-06T16:22:17.498Z,101922.66
2023-05-06T16:24:46.560Z,101922.78
2023-05-06T16:27:16.003Z,101914.53
2023-05-06T16:29:45.161Z,101920.41
2023-05-06T16:32:17.447Z,101913.19
2023-05-06T16:34:48.022Z,101921.53
2023-05-06T16:37:17.910Z,101917.28
2023-05-06T16:39:47.363Z,101916.50
2023-05-06T16:42:17.452Z,101913.59
2023-05-06T16:44:46.568Z,101909.41
2023-05-06T16:47:16.079Z,101917.91
2023-05-06T16:49:45.379Z,101907.63
2023-05-06T16:52:15.924Z,101914.44
2023-05-06T16:54:45.484Z,101912.16
2023-05-06T16:57:14.935Z,101912.13
2023-05-06T16:59:44.467Z,101914.66
2023-05-06T17:02:13.661Z,101919.59
2023-05-06T17:04:42.999Z,101911.06
2023-05-06T17:07:12.219Z,101913.63
2023-05-06T17:09:46.528Z,101915.97
2023-05-06T17:12:15.790Z,101918.50
2023-05-06T17:14:44.863Z,101916.81
2023-05-06T17:17:14.197Z,101919.34
2023-05-06T17:19:43.392Z,101918.88
2023-05-06T17:22:12.807Z,101915.78
2023-05-06T17:24:43.460Z,101909.31
2023-05-06T17:27:13.032Z,101911.00
2023-05-06T17:29:42.193Z,101912.97
2023-05-06T17:32:14.663Z,101916.38
2023-05-06T17:34:44.040Z,101916.91
2023-05-06T17:37:16.035Z,101922.53
2023-05-06T17:39:47.656Z,101919.78
2023-05-06T17:42:16.705Z,101915.44
2023-05-06T17:44:46.136Z,101915.03
2023-05-06T17:47:15.616Z,101909.53
2023-05-06T17:49:45.671Z,101912.78
2023-05-06T17:52:14.817Z,101914.56
2023-05-06T17:54:46.048Z,101906.25
2023-05-06T17:57:15.232Z,101911.00
2023-05-06T17:59:44.303Z,101909.16
2023-05-06T18:02:15.843Z,101903.81
2023-05-06T18:04:45.059Z,101909.16
2023-05-06T18:07:15.378Z,101906.59
2023-05-06T18:09:51.760Z,101906.25
2023-05-06T18:12:21.303Z,101911.13
2023-05-06T18:14:50.375Z,101916.25
2023-05-06T18:17:19.481Z,101919.25
2023-05-06T18:19:50.467Z,101923.44
2023-05-06T18:22:19.659Z,101922.25
2023-05-06T18:24:54.464Z,101923.00
2023-05-06T18:27:23.776Z,101920.19
2023-05-06T18:29:53.306Z,101923.53
2023-05-06T18:32:25.578Z,101929.56
2023-05-06T18:34:54.785Z,101927.47
2023-05-06T18:37:24.001Z,101923.47
2023-05-06T18:39:54.469Z,101931.41
2023-05-06T18:42:23.781Z,101941.78
2023-05-06T18:44:53.100Z,101936.56
2023-05-06T18:47:22.171Z,101938.41
2023-05-06T18:49:54.893Z,101938.41
2023-05-06T18:52:24.073Z,101938.22
2023-05-06T18:54:54.834Z,101943.38
2023-05-06T18:57:27.939Z,101948.69
2023-05-06T18:59:57.416Z,101952.53
2023-05-06T19:02:26.962Z,101955.72
2023-05-06T19:04:56.668Z,101958.69
2023-05-06T19:07:26.096Z,101951.50
2023-05-06T19:09:56.820Z,101954.38
2023-05-06T19:12:26.172Z,101951.56
2023-05-06T19:14:55.418Z,101961.69
2023-05-06T19:17:24.596Z,101964.19
2023-05-06T19:19:53.740Z,101968.38
2023-05-06T19:22:22.937Z,101966.34
2023-05-06T19:24:56.457Z,101968.56
2023-05-06T19:27:27.193Z,101974.00
2023-05-06T19:29:56.522Z,101977.78
2023-05-06T19:32:25.673Z,101980.47
2023-05-06T19:34:54.981Z,101987.34
2023-05-06T19:37:24.159Z,101992.25
2023-05-06T19:39:53.219Z,101987.28
2023-05-06T19:42:22.686Z,101995.00
2023-05-06T19:44:53.362Z,101994.94
2023-05-06T19:47:22.713Z,101998.72
2023-05-06T19:49:52.309Z,101994.28
2023-05-06T19:52:23.714Z,101992.91
2023-05-06T19:54:55.896Z,101996.88
2023-05-06T19:57:27.018Z,102001.38
2023-05-06T19:59:57.646Z,101993.69
2023-05-06T20:02:26.907Z,102002.97
2023-05-06T20:04:56.037Z,101997.16
2023-05-06T20:07:25.132Z,101997.56
2023-05-06T20:09:56.003Z,101985.00
2023-05-06T20:12:26.328Z,101994.47
2023-05-06T20:14:57.229Z,101996.41
2023-05-06T20:17:26.935Z,102006.31
2023-05-06T20:19:57.216Z,102013.78
2023-05-06T20:22:27.055Z,102008.53
2023-05-06T20:25:09.678Z,102002.56
2023-05-06T20:27:39.161Z,101999.38
2023-05-06T20:30:12.529Z,102006.69
2023-05-06T20:32:42.299Z,102002.97
2023-05-06T20:35:12.310Z,102006.03
2023-05-06T20:37:41.844Z,102009.38
2023-05-06T20:40:12.092Z,102004.94
2023-05-06T20:42:41.201Z,101999.13
2023-05-06T20:45:15.408Z,102003.41
2023-05-06T20:47:45.590Z,101995.00
2023-05-06T20:50:17.392Z,102006.63
2023-05-06T20:52:49.375Z,102013.13
2023-05-06T20:55:23.751Z,102014.53
2023-05-06T20:57:53.234Z,102015.56
2023-05-06T21:00:24.118Z,102018.56
2023-05-06T21:02:53.367Z,102014.47
2023-05-06T21:05:22.495Z,102017.09
2023-05-06T21:07:51.665Z,102011.66
2023-05-06T21:10:21.097Z,102004.56
2023-05-06T21:12:50.853Z,102006.44
2023-05-06T21:15:20.185Z,101999.50
2023-05-06T21:17:52.006Z,102013.44
2023-05-06T21:20:21.314Z,102009.97
2023-05-06T21:22:50.470Z,102015.78
2023-05-06T21:25:19.661Z,102016.06
2023-05-06T21:27:48.743Z,102007.28
2023-05-06T21:30:17.935Z,102008.19
2023-05-06T21:32:47.130Z,102005.47
2023-05-06T21:35:18.138Z,102009.34
2023-05-06T21:37:47.324Z,102003.38
2023-05-06T21:40:16.424Z,102002.72
2023-05-06T21:42:45.523Z,102005.13
2023-05-06T21:45:16.132Z,102008.88
2023-05-06T21:47:46.169Z,102013.72
2023-05-06T21:50:16.768Z,102012.06
2023-05-06T21:52:45.843Z,102011.94
2023-05-06T21:55:14.981Z,102016.34
2023-05-06T21:57:44.675Z,102022.34
2023-05-06T22:00:15.914Z,102020.19
2023-05-06T22:02:46.302Z,102021.56
2023-05-06T22:05:17.437Z,102021.94
2023-05-06T22:07:46.756Z,102022.13
2023-05-06T22:10:15.933Z,102022.97
2023-05-06T22:12:45.049Z,102021.09
2023-05-06T22:15:14.778Z,102025.03
2023-05-06T22:17:43.879Z,102023.06
2023-05-06T22:20:15.108Z,102019.78
2023-05-06T22:22:46.127Z,102019.25
2023-05-06T22:25:15.229Z,102016.56
2023-05-06T22:27:44.358Z,102015.91
2023-05-06T22:30:15.788Z,102022.03
2023-05-06T22:32:45.498Z,102023.44
2023-05-06T22:35:14.914Z,102024.16
2023-05-06T22:37:45.461Z,102021.81
2023-05-06T22:40:15.034Z,102014.47
2023-05-06T22:42:44.098Z,102016.50
2023-05-06T22:45:13.520Z,102018.47
2023-05-06T22:47:42.876Z,102015.59
2023-05-06T22:50:12.999Z,102008.06
2023-05-06T22:52:42.037Z,102017.03
2023-05-06T22:55:12.856Z,102003.56
2023-05-06T22:57:42.140Z,102013.84
2023-05-06T23:00:13.661Z,102009.66
2023-05-06T23:02:42.867Z,102008.72
2023-05-06T23:07:53.414Z,102007.22
2023-05-06T23:10:22.649Z,102013.63
2023-05-06T23:12:51.757Z,102021.50
2023-05-06T23:15:20.878Z,102011.41
2023-05-06T23:17:50.031Z,102015.53
2023-05-06T23:20:19.359Z,102014.75
2023-05-06T23:22:48.554Z,102020.38
2023-05-06T23:25:19.548Z,102006.31
2023-05-06T23:27:48.625Z,102020.63
2023-05-06T23:30:17.764Z,102014.28
2023-05-06T23:32:46.856Z,102013.91
2023-05-06T23:35:16.024Z,102013.63
2023-05-06T23:37:45.137Z,102017.38
2023-05-06T23:40:15.354Z,102013.81
2023-05-06T23:42:46.052Z,102023.06
2023-05-06T23:45:15.113Z,102016.72
2023-05-06T23:47:44.230Z,102011.28
2023-05-06T23:50:14.099Z,102016.72
2023-05-06T23:52:43.503Z,102012.41
2023-05-06T23:55:13.191Z,102019.78
2023-05-06T23:57:42.588Z,102025.28
